Terminal Aerodrome Forecast
Issued by NWS

Home | Current Version | Previous Version | Text Only | Print | Product List | Glossary On
Versions: 1 2 3 4 5 6 7 8 9 10 11 12 13 14 15 16 17 18 19 20 21 22 23 24 25 26 27 28 29 30 31 32 33 34 35
000
FTUS44 KHGX 260906 AAB
TAFSGR
TAF AMD
KSGR 260906Z 2609/2706 17016KT P6SM SCT025 OVC035
     FM261500 19016KT P6SM OVC015
     FM261800 22018G24KT P6SM BKN030
     FM262300 31014KT P6SM FEW080 SCT250
     FM270300 34013KT P6SM SKC=

USA.gov is the U.S. government's official web portal to all federal, state and local government web resources and services.